createdAt,value
2022-12-26T00:01:40.802Z,18.25
2022-12-26T00:04:08.828Z,23.15
2022-12-26T00:06:56.674Z,23.42
2022-12-26T00:09:24.372Z,24.00
2022-12-26T00:11:52.673Z,19.30
2022-12-26T00:14:20.350Z,22.70
2022-12-26T00:16:48.311Z,20.98
2022-12-26T00:19:16.181Z,24.73
2022-12-26T00:21:44.199Z,23.65
2022-12-26T00:24:12.309Z,25.40
2022-12-26T00:26:40.283Z,26.95
2022-12-26T00:29:07.986Z,25.80
2022-12-26T00:31:36.610Z,24.58
2022-12-26T00:34:04.290Z,24.35
2022-12-26T00:36:34.122Z,30.17
2022-12-26T00:41:32.039Z,26.10
2022-12-26T00:44:00.905Z,29.42
2022-12-26T00:46:29.014Z,26.10
2022-12-26T00:48:56.774Z,26.52
2022-12-26T00:51:25.019Z,23.77
2022-12-26T00:53:52.625Z,23.33
2022-12-26T00:56:20.818Z,23.52
2022-12-26T00:58:48.388Z,27.67
2022-12-26T01:01:21.775Z,27.30
2022-12-26T01:03:51.096Z,27.23
2022-12-26T01:08:46.954Z,25.40
2022-12-26T01:11:37.432Z,30.73
2022-12-26T01:14:05.453Z,26.40
2022-12-26T01:16:33.698Z,30.85
2022-12-26T01:19:02.374Z,30.37
2022-12-26T01:21:30.282Z,30.63
2022-12-26T01:23:57.834Z,29.63
2022-12-26T01:26:25.869Z,28.77
2022-12-26T01:28:54.325Z,28.90
2022-12-26T01:31:23.361Z,28.30
2022-12-26T01:33:50.936Z,26.17
2022-12-26T01:36:19.461Z,27.95
2022-12-26T01:38:47.168Z,24.35
2022-12-26T01:41:20.629Z,27.48
2022-12-26T01:44:03.267Z,25.45
2022-12-26T01:46:44.501Z,27.75
2022-12-26T01:49:37.566Z,28.00
2022-12-26T01:52:15.243Z,33.15
2022-12-26T01:54:48.743Z,23.45
2022-12-26T01:57:24.657Z,23.23
2022-12-26T01:59:53.792Z,26.52
2022-12-26T02:05:10.526Z,21.65
2022-12-26T02:07:46.380Z,22.27
2022-12-26T02:10:23.912Z,29.10
2022-12-26T02:12:52.866Z,23.92
2022-12-26T02:15:20.520Z,20.67
2022-12-26T02:17:48.444Z,20.40
2022-12-26T02:20:17.832Z,19.15
2022-12-26T02:23:03.842Z,22.75
2022-12-26T02:26:26.257Z,19.30
2022-12-26T02:28:57.159Z,20.98
2022-12-26T02:31:53.449Z,18.95
2022-12-26T02:34:51.695Z,20.88
2022-12-26T02:38:07.590Z,22.05
2022-12-26T02:40:42.920Z,22.58
2022-12-26T02:43:31.453Z,24.20
2022-12-26T02:47:02.701Z,24.20
2022-12-26T02:50:16.891Z,28.20
2022-12-26T02:53:21.736Z,23.83
2022-12-26T02:56:11.992Z,20.08
2022-12-26T02:59:13.923Z,34.80
2022-12-26T03:02:07.026Z,34.22
2022-12-26T03:04:55.788Z,30.30
2022-12-26T03:07:49.029Z,33.33
2022-12-26T03:10:42.781Z,26.90
2022-12-26T03:13:28.744Z,23.40
2022-12-26T03:16:29.925Z,21.15
2022-12-26T03:19:06.235Z,44.88
2022-12-26T03:21:43.620Z,33.25
2022-12-26T03:24:16.063Z,27.65
2022-12-26T03:26:54.608Z,27.55
2022-12-26T03:29:42.429Z,43.67
2022-12-26T03:32:12.782Z,39.72
2022-12-26T03:34:44.961Z,36.05
2022-12-26T03:37:49.706Z,40.85
2022-12-26T03:40:52.632Z,41.88
2022-12-26T03:43:52.607Z,45.67
2022-12-26T03:47:23.860Z,40.22
2022-12-26T03:50:19.905Z,42.45
2022-12-26T03:53:40.235Z,40.63
2022-12-26T03:57:01.977Z,51.97
2022-12-26T04:00:20.711Z,44.45
2022-12-26T04:03:08.972Z,27.77
2022-12-26T04:05:59.731Z,24.83
2022-12-26T04:09:31.407Z,31.67
2022-12-26T04:12:20.393Z,47.17
2022-12-26T04:18:36.923Z,49.83
2022-12-26T04:21:45.588Z,41.30
2022-12-26T04:24:41.640Z,48.75
2022-12-26T04:27:34.057Z,48.83
2022-12-26T04:30:20.433Z,46.55
2022-12-26T04:33:13.262Z,54.78
2022-12-26T04:36:10.392Z,50.55
2022-12-26T04:39:07.821Z,57.67
2022-12-26T04:41:55.635Z,60.05
2022-12-26T04:46:56.119Z,67.07
2022-12-26T04:49:42.593Z,68.20
2022-12-26T04:52:14.770Z,73.82
2022-12-26T04:54:42.869Z,70.93
2022-12-26T04:57:11.816Z,63.38
2022-12-26T04:59:39.764Z,68.72
2022-12-26T05:02:27.150Z,66.10
2022-12-26T05:05:13.932Z,63.58
2022-12-26T05:08:00.128Z,53.80
2022-12-26T05:10:29.413Z,56.22
2022-12-26T05:12:57.015Z,55.72
2022-12-26T05:15:25.055Z,53.13
2022-12-26T05:18:11.480Z,58.35
2022-12-26T05:20:58.565Z,60.33
2022-12-26T05:23:46.809Z,59.50
2022-12-26T05:26:40.805Z,64.18
2022-12-26T05:29:08.613Z,66.05
2022-12-26T05:31:37.377Z,70.15
2022-12-26T05:34:17.631Z,58.15
2022-12-26T05:36:50.237Z,59.42
2022-12-26T05:39:18.133Z,57.75
2022-12-26T05:41:46.353Z,63.22
2022-12-26T05:44:15.165Z,67.77
2022-12-26T05:46:43.685Z,62.33
2022-12-26T05:49:11.490Z,59.42
2022-12-26T05:51:39.421Z,62.97
2022-12-26T05:54:06.994Z,64.00
2022-12-26T05:56:34.901Z,58.30
2022-12-26T05:59:02.518Z,62.88
2022-12-26T06:01:31.127Z,58.65
2022-12-26T06:04:00.680Z,52.20
2022-12-26T06:06:29.712Z,46.20
2022-12-26T06:08:57.977Z,52.03
2022-12-26T06:11:27.098Z,61.30
2022-12-26T06:13:55.810Z,46.95
2022-12-26T06:16:24.359Z,33.22
2022-12-26T06:18:52.158Z,25.63
2022-12-26T06:21:21.989Z,33.05
2022-12-26T06:26:18.985Z,34.38
2022-12-26T06:28:47.711Z,31.77
2022-12-26T06:31:23.860Z,39.95
2022-12-26T06:33:58.405Z,54.00
2022-12-26T06:36:28.607Z,58.33
2022-12-26T06:38:58.149Z,65.35
2022-12-26T06:41:26.367Z,59.45
2022-12-26T06:43:55.903Z,47.38
2022-12-26T06:48:54.593Z,43.50
2022-12-26T06:51:26.570Z,39.35
2022-12-26T06:53:54.806Z,57.58
2022-12-26T06:56:26.233Z,49.58
2022-12-26T06:59:00.313Z,59.58
2022-12-26T07:01:30.233Z,68.60
2022-12-26T07:03:58.772Z,56.28
2022-12-26T07:06:36.449Z,58.70
2022-12-26T07:09:13.225Z,67.95
2022-12-26T07:11:44.144Z,60.63
2022-12-26T07:14:12.780Z,66.32
2022-12-26T07:16:43.201Z,66.55
2022-12-26T07:19:14.009Z,70.40
2022-12-26T07:21:42.336Z,60.22
2022-12-26T07:24:21.300Z,59.80
2022-12-26T07:26:49.914Z,61.60
2022-12-26T07:29:18.447Z,61.97
2022-12-26T07:31:46.207Z,54.70
2022-12-26T07:34:14.508Z,60.88
2022-12-26T07:36:42.615Z,79.38
2022-12-26T07:39:14.617Z,76.45
2022-12-26T07:41:57.495Z,61.78
2022-12-26T07:44:28.333Z,59.88
2022-12-26T07:46:57.559Z,56.90
2022-12-26T07:49:25.669Z,64.80
2022-12-26T07:51:53.598Z,74.20
2022-12-26T07:54:21.585Z,67.95
2022-12-26T07:56:49.166Z,68.85
2022-12-26T07:59:18.206Z,69.35
2022-12-26T08:01:45.886Z,57.10
2022-12-26T08:04:14.667Z,66.30
2022-12-26T08:06:42.798Z,62.13
2022-12-26T08:09:16.234Z,70.33
2022-12-26T08:11:45.110Z,68.78
2022-12-26T08:14:16.850Z,73.68
2022-12-26T08:16:49.711Z,64.97
2022-12-26T08:19:19.374Z,67.40
2022-12-26T08:21:47.079Z,60.70
2022-12-26T08:24:16.060Z,60.92
2022-12-26T08:26:43.583Z,70.93
2022-12-26T08:29:11.795Z,68.90
2022-12-26T08:31:39.779Z,67.80
2022-12-26T08:34:08.446Z,79.85
2022-12-26T08:36:36.367Z,68.15
2022-12-26T08:39:04.453Z,72.65
2022-12-26T08:41:32.289Z,70.40
2022-12-26T08:46:47.772Z,62.00
2022-12-26T08:49:15.845Z,61.70
2022-12-26T08:51:43.412Z,63.05
2022-12-26T08:54:11.936Z,58.22
2022-12-26T08:56:39.748Z,55.67
2022-12-26T08:59:07.701Z,54.42
2022-12-26T09:01:35.829Z,63.47
2022-12-26T09:04:06.748Z,59.83
2022-12-26T09:06:37.645Z,55.85
2022-12-26T09:09:08.576Z,58.90
2022-12-26T09:11:36.265Z,66.88
2022-12-26T09:14:05.208Z,59.22
2022-12-26T09:16:40.015Z,62.58
2022-12-26T09:19:17.677Z,72.53
2022-12-26T09:21:46.716Z,64.90
2022-12-26T09:24:18.085Z,51.47
2022-12-26T09:26:46.077Z,51.95
2022-12-26T09:29:14.277Z,59.78
2022-12-26T09:31:42.324Z,57.40
2022-12-26T09:34:10.311Z,74.63
2022-12-26T09:36:39.515Z,68.03
2022-12-26T09:39:08.538Z,75.35
2022-12-26T09:41:57.540Z,80.20
2022-12-26T09:45:05.565Z,74.68
2022-12-26T09:48:06.873Z,89.10
2022-12-26T09:50:43.186Z,76.97
2022-12-26T09:53:36.173Z,87.18
2022-12-26T09:56:36.949Z,86.43
2022-12-26T09:59:12.587Z,85.68
2022-12-26T10:01:41.769Z,94.07
2022-12-26T10:04:29.496Z,99.15
2022-12-26T10:06:58.136Z,90.53
2022-12-26T10:10:05.412Z,95.28
2022-12-26T10:12:34.187Z,96.78
2022-12-26T10:15:39.819Z,100.03
2022-12-26T10:18:53.550Z,90.25
2022-12-26T10:21:52.618Z,98.30
2022-12-26T10:24:27.240Z,92.00
2022-12-26T10:27:03.401Z,92.22
2022-12-26T10:29:41.357Z,82.22
2022-12-26T10:32:27.523Z,84.20
2022-12-26T10:34:55.971Z,84.45
2022-12-26T10:37:43.542Z,80.70
2022-12-26T10:40:27.932Z,68.45
2022-12-26T10:43:02.864Z,70.88
2022-12-26T10:46:17.709Z,70.50
2022-12-26T10:48:46.966Z,69.68
2022-12-26T10:53:52.180Z,73.10
2022-12-26T10:56:24.782Z,80.22
2022-12-26T10:59:04.721Z,87.30
2022-12-26T11:01:38.029Z,79.57
2022-12-26T11:05:02.167Z,84.45
2022-12-26T11:07:17.424Z,81.90
2022-12-26T11:09:46.169Z,78.05
2022-12-26T11:12:52.137Z,70.22
2022-12-26T11:15:48.182Z,72.05
2022-12-26T11:18:47.238Z,70.82
2022-12-26T11:21:25.786Z,68.60
2022-12-26T11:24:19.420Z,70.03
2022-12-26T11:26:47.451Z,67.28
2022-12-26T11:29:20.868Z,69.88
2022-12-26T11:32:02.901Z,64.18
2022-12-26T11:34:46.067Z,50.33
2022-12-26T11:37:44.519Z,45.15
2022-12-26T11:40:25.644Z,54.65
2022-12-26T11:43:00.213Z,53.40
2022-12-26T11:45:37.070Z,60.13
2022-12-26T11:48:24.230Z,54.58
2022-12-26T11:50:53.726Z,57.05
2022-12-26T11:53:23.416Z,43.40
2022-12-26T11:56:05.041Z,35.22
2022-12-26T11:58:35.097Z,32.50
2022-12-26T12:01:10.680Z,29.73
2022-12-26T12:03:50.569Z,33.22
2022-12-26T12:06:49.385Z,22.65
2022-12-26T12:09:25.710Z,26.17
2022-12-26T12:12:14.527Z,30.27
2022-12-26T12:15:30.211Z,21.27
2022-12-26T12:18:13.950Z,22.98
2022-12-26T12:21:38.457Z,19.65
2022-12-26T12:24:21.321Z,27.38
2022-12-26T12:27:32.079Z,24.17
2022-12-26T12:30:15.095Z,25.38
2022-12-26T12:33:44.660Z,27.88
2022-12-26T12:36:37.127Z,21.63
2022-12-26T12:39:26.416Z,20.48
2022-12-26T12:42:23.558Z,20.73
2022-12-26T12:45:05.736Z,21.83
2022-12-26T12:47:55.966Z,22.55
2022-12-26T12:51:07.661Z,27.10
2022-12-26T12:53:56.477Z,19.92
2022-12-26T12:56:44.285Z,23.20
2022-12-26T12:59:48.183Z,18.00
2022-12-26T13:02:49.232Z,18.27
2022-12-26T13:05:34.851Z,21.73
2022-12-26T13:08:19.773Z,17.70
2022-12-26T13:10:59.640Z,22.75
2022-12-26T13:13:42.804Z,15.00
2022-12-26T13:16:19.915Z,18.90
2022-12-26T13:19:01.942Z,19.13
2022-12-26T13:21:40.039Z,16.88
2022-12-26T13:24:26.289Z,16.10
2022-12-26T13:27:04.242Z,17.27
2022-12-26T13:29:31.657Z,20.02
2022-12-26T13:32:00.795Z,17.83
2022-12-26T13:34:28.589Z,18.00
2022-12-26T13:36:59.783Z,19.45
2022-12-26T13:39:34.824Z,21.67
2022-12-26T13:42:34.643Z,21.73
2022-12-26T13:45:36.182Z,23.90
2022-12-26T13:48:17.036Z,22.85
2022-12-26T13:50:55.695Z,23.50
2022-12-26T13:53:34.469Z,25.58
2022-12-26T13:56:04.521Z,23.80
2022-12-26T13:58:55.750Z,21.83
2022-12-26T14:02:42.973Z,27.33
2022-12-26T14:05:44.705Z,30.33
2022-12-26T14:08:39.238Z,30.38
2022-12-26T14:12:03.326Z,37.22
2022-12-26T14:14:54.385Z,36.90
2022-12-26T14:17:50.181Z,36.28
2022-12-26T14:20:49.583Z,32.60
2022-12-26T14:23:45.894Z,31.25
2022-12-26T14:26:21.662Z,29.20
2022-12-26T14:29:27.583Z,34.40
2022-12-26T14:32:21.403Z,43.03
2022-12-26T14:35:21.723Z,40.40
2022-12-26T14:37:56.325Z,49.83
2022-12-26T14:40:37.918Z,52.70
2022-12-26T14:43:17.172Z,54.85
2022-12-26T14:45:52.125Z,52.75
2022-12-26T14:48:24.281Z,49.42
2022-12-26T14:50:56.357Z,49.05
2022-12-26T14:53:27.532Z,50.85
2022-12-26T14:56:05.245Z,49.30
2022-12-26T14:58:39.300Z,45.78
2022-12-26T15:01:13.684Z,42.17
2022-12-26T15:04:02.386Z,43.85
2022-12-26T15:07:56.191Z,42.72
2022-12-26T15:10:47.983Z,44.13
2022-12-26T15:13:46.348Z,44.25
2022-12-26T15:16:48.728Z,43.53
2022-12-26T15:19:44.165Z,42.88
2022-12-26T15:22:36.015Z,41.67
2022-12-26T15:25:34.374Z,43.45
2022-12-26T15:29:01.651Z,37.38
2022-12-26T15:31:50.104Z,48.28
2022-12-26T15:34:40.633Z,57.45
2022-12-26T15:37:17.448Z,57.45
2022-12-26T15:40:11.635Z,74.90
2022-12-26T15:43:26.157Z,98.78
2022-12-26T15:46:35.838Z,102.25
2022-12-26T15:49:32.999Z,104.20
2022-12-26T15:52:18.271Z,97.43
2022-12-26T15:55:59.316Z,92.35
2022-12-26T15:59:26.854Z,92.57
2022-12-26T16:01:55.109Z,96.85
2022-12-26T16:04:27.546Z,100.60
2022-12-26T16:07:09.094Z,96.82
2022-12-26T16:09:44.518Z,91.07
2022-12-26T16:12:27.653Z,87.28
2022-12-26T16:15:09.826Z,66.25
2022-12-26T16:17:39.824Z,64.93
2022-12-26T16:20:44.154Z,59.42
2022-12-26T16:23:18.682Z,63.17
2022-12-26T16:25:55.965Z,58.65
2022-12-26T16:28:34.229Z,58.77
2022-12-26T16:31:02.947Z,65.53
2022-12-26T16:33:43.786Z,71.93
2022-12-26T16:36:20.651Z,77.82
2022-12-26T16:38:49.890Z,96.93
2022-12-26T16:41:25.954Z,96.93
2022-12-26T16:43:56.949Z,93.18
2022-12-26T16:46:30.166Z,80.18
2022-12-26T16:49:01.181Z,76.82
2022-12-26T16:51:49.416Z,71.47
2022-12-26T16:54:38.568Z,72.75
2022-12-26T16:57:20.884Z,72.83
2022-12-26T16:59:49.125Z,69.25
2022-12-26T17:02:34.575Z,70.43
2022-12-26T17:05:07.762Z,58.05
2022-12-26T17:07:43.737Z,47.17
2022-12-26T17:10:25.693Z,47.80
2022-12-26T17:12:56.150Z,39.95
2022-12-26T17:15:28.455Z,42.35
2022-12-26T17:18:31.059Z,44.20
2022-12-26T17:21:17.177Z,37.05
2022-12-26T17:23:46.287Z,35.25
2022-12-26T17:28:51.392Z,33.50
2022-12-26T17:31:43.213Z,37.13
2022-12-26T17:34:29.034Z,31.10
2022-12-26T17:37:19.064Z,39.05
2022-12-26T17:40:03.372Z,20.63
2022-12-26T17:43:13.037Z,18.15
2022-12-26T17:45:46.912Z,15.52
2022-12-26T17:48:15.288Z,12.57
2022-12-26T17:50:46.891Z,22.17
2022-12-26T17:53:32.955Z,17.55
2022-12-26T17:56:07.277Z,16.77
2022-12-26T17:58:35.466Z,15.05
2022-12-26T18:01:04.101Z,17.15
2022-12-26T18:03:32.084Z,14.73
2022-12-26T18:05:59.615Z,15.25
2022-12-26T18:08:40.472Z,13.60
2022-12-26T18:11:12.381Z,17.52
2022-12-26T18:13:41.354Z,19.10
2022-12-26T18:16:16.815Z,19.17
2022-12-26T18:18:46.595Z,19.58
2022-12-26T18:23:44.530Z,33.97
2022-12-26T18:26:29.378Z,34.08
2022-12-26T18:28:57.912Z,31.70
2022-12-26T18:31:29.395Z,31.60
2022-12-26T18:33:57.791Z,37.42
2022-12-26T18:36:34.065Z,25.25
2022-12-26T18:39:02.662Z,29.92
2022-12-26T18:41:30.425Z,28.63
2022-12-26T18:43:58.337Z,34.30
2022-12-26T18:46:28.016Z,23.92
2022-12-26T18:48:57.510Z,27.98
2022-12-26T18:51:26.426Z,23.10
2022-12-26T18:53:54.851Z,19.15
2022-12-26T18:56:23.486Z,30.27
2022-12-26T18:58:57.402Z,18.02
2022-12-26T19:01:26.990Z,17.33
2022-12-26T19:03:55.334Z,15.98
2022-12-26T19:06:26.919Z,23.58
2022-12-26T19:08:56.020Z,13.43
2022-12-26T19:11:23.632Z,18.08
2022-12-26T19:13:51.586Z,19.65
2022-12-26T19:16:19.684Z,16.10
2022-12-26T19:18:47.608Z,12.10
2022-12-26T19:21:16.750Z,25.90
2022-12-26T19:23:47.806Z,18.42
2022-12-26T19:26:18.064Z,15.70
2022-12-26T19:28:54.446Z,11.70
2022-12-26T19:31:23.508Z,10.50
2022-12-26T19:33:51.967Z,7.78
2022-12-26T19:36:19.559Z,8.07
2022-12-26T19:38:47.536Z,9.57
2022-12-26T19:41:15.693Z,14.20
2022-12-26T19:43:43.610Z,18.33
2022-12-26T19:46:17.261Z,14.90
2022-12-26T19:48:45.359Z,11.38
2022-12-26T19:51:16.505Z,23.40
2022-12-26T19:53:45.886Z,16.75
2022-12-26T19:56:18.059Z,66.35
2022-12-26T19:58:50.516Z,18.45
2022-12-26T20:01:26.505Z,13.75
2022-12-26T20:04:00.506Z,18.73
2022-12-26T20:06:32.532Z,16.75
2022-12-26T20:09:04.857Z,14.90
2022-12-26T20:11:35.589Z,15.00
2022-12-26T20:14:06.372Z,10.35
2022-12-26T20:17:04.433Z,13.55
2022-12-26T20:19:24.885Z,26.17
2022-12-26T20:21:53.420Z,27.67
2022-12-26T20:24:23.082Z,21.73
2022-12-26T20:26:51.100Z,20.70
2022-12-26T20:29:19.441Z,20.90
2022-12-26T20:31:47.670Z,23.05
2022-12-26T20:34:16.017Z,21.92
2022-12-26T20:36:43.751Z,17.63
2022-12-26T20:39:16.154Z,22.75
2022-12-26T20:41:44.509Z,20.38
2022-12-26T20:44:16.913Z,27.02
2022-12-26T20:46:45.935Z,24.35
2022-12-26T20:51:44.081Z,27.00
2022-12-26T20:54:15.823Z,22.42
2022-12-26T20:56:44.252Z,17.63
2022-12-26T20:59:12.727Z,23.08
2022-12-26T21:01:46.452Z,22.85
2022-12-26T21:04:22.890Z,20.70
2022-12-26T21:06:51.571Z,24.75
2022-12-26T21:09:19.860Z,23.17
2022-12-26T21:11:47.725Z,23.10
2022-12-26T21:14:22.194Z,13.98
2022-12-26T21:16:58.945Z,14.70
2022-12-26T21:19:29.957Z,15.05
2022-12-26T21:21:57.922Z,14.77
2022-12-26T21:24:31.880Z,24.65
2022-12-26T21:27:00.389Z,17.95
2022-12-26T21:29:32.380Z,16.00
2022-12-26T21:32:02.006Z,17.77
2022-12-26T21:34:32.949Z,15.88
2022-12-26T21:37:19.382Z,14.48
2022-12-26T21:39:47.844Z,21.75
2022-12-26T21:42:15.832Z,17.75
2022-12-26T21:44:44.313Z,13.35
2022-12-26T21:47:12.372Z,14.88
2022-12-26T21:49:40.716Z,13.67
2022-12-26T21:52:10.293Z,19.17
2022-12-26T21:54:56.854Z,16.67
2022-12-26T21:57:25.942Z,18.63
2022-12-26T21:59:57.951Z,17.17
2022-12-26T22:02:54.420Z,16.98
2022-12-26T22:05:28.953Z,13.05
2022-12-26T22:08:01.887Z,11.68
2022-12-26T22:10:54.114Z,19.05
2022-12-26T22:13:24.849Z,17.67
2022-12-26T22:16:07.142Z,14.02
2022-12-26T22:18:45.227Z,15.40
2022-12-26T22:21:20.611Z,15.85
2022-12-26T22:23:50.706Z,18.05
2022-12-26T22:26:22.836Z,14.88
2022-12-26T22:28:56.763Z,9.77
2022-12-26T22:31:35.867Z,10.85
2022-12-26T22:34:10.799Z,13.07
2022-12-26T22:36:42.845Z,19.10
2022-12-26T22:39:19.124Z,16.00
2022-12-26T22:41:49.119Z,16.10
2022-12-26T22:44:21.859Z,12.07
2022-12-26T22:46:55.075Z,14.35
2022-12-26T22:49:23.943Z,15.30
2022-12-26T22:51:52.416Z,15.77
2022-12-26T22:54:20.098Z,15.05
2022-12-26T22:56:48.146Z,11.00
2022-12-26T22:59:33.920Z,12.85
2022-12-26T23:02:04.348Z,12.75
2022-12-26T23:04:32.625Z,15.82
2022-12-26T23:07:01.135Z,13.43
2022-12-26T23:09:29.211Z,17.27
2022-12-26T23:12:16.373Z,10.00
2022-12-26T23:14:46.238Z,11.60
2022-12-26T23:17:37.424Z,16.60
2022-12-26T23:20:25.156Z,14.02
2022-12-26T23:22:53.444Z,14.82
2022-12-26T23:25:21.068Z,12.40
2022-12-26T23:28:15.141Z,13.82
2022-12-26T23:30:42.782Z,9.65
2022-12-26T23:33:10.806Z,11.40
2022-12-26T23:35:40.109Z,13.60
2022-12-26T23:38:08.055Z,9.85
2022-12-26T23:40:35.634Z,13.38
2022-12-26T23:43:03.602Z,12.65
2022-12-26T23:45:31.289Z,11.23
2022-12-26T23:47:59.227Z,10.05
2022-12-26T23:50:27.004Z,13.00
2022-12-26T23:52:54.862Z,12.02
2022-12-26T23:55:22.629Z,10.95
2022-12-26T23:57:50.860Z,9.13
